Time;durP1;ratioP1;P1;durP2;ratioP2;P2;SDS_P1;SDS_P2;PMS_P1;PMS_P2;Temp;Humidity;BMP_temperature;BMP_pressure;BME280_temperature;BME280_humidity;BME280_pressure;Samples;Min_cycle;Max_cycle;Signal;HPM_P1;HPM_P2
2021/10/14 00:02:24;;;;;;;4.47;3.80;;;;;;;;;;5029145;28;20041;-69
2021/10/14 00:05:09;;;;;;;6.15;3.80;;;;;;;;;;5029122;28;20535;-69
2021/10/14 00:07:53;;;;;;;4.78;3.88;;;;;;;;;;5026931;28;20117;-70
2021/10/14 00:10:38;;;;;;;4.50;4.00;;;;;;;;;;5026927;28;20032;-69
2021/10/14 00:13:23;;;;;;;4.50;3.70;;;;;;;;;;5029229;28;20164;-69
2021/10/14 00:16:07;;;;;;;5.95;4.10;;;;;;;;;;5026802;28;20095;-69
2021/10/14 00:18:52;;;;;;;5.00;3.53;;;;;;;;;;5027388;28;20056;-70
2021/10/14 00:21:37;;;;;;;5.05;3.70;;;;;;;;;;5028905;28;20083;-70
2021/10/14 00:24:21;;;;;;;5.18;3.78;;;;;;;;;;5027660;28;20044;-70
2021/10/14 00:27:06;;;;;;;4.60;3.58;;;;;;;;;;5013585;28;20106;-69
2021/10/14 00:29:51;;;;;;;4.75;3.33;;;;;;;;;;5022132;28;20129;-69
2021/10/14 00:32:36;;;;;;;4.65;3.63;;;;;;;;;;5027789;28;20048;-69
2021/10/14 00:35:21;;;;;;;4.95;3.72;;;;;;;;;;5027956;28;20044;-69
2021/10/14 00:38:05;;;;;;;5.72;3.63;;;;;;;;;;5028169;28;20052;-70
2021/10/14 00:40:50;;;;;;;5.00;3.85;;;;;;;;;;5027669;28;20040;-69
2021/10/14 00:43:34;;;;;;;5.07;3.60;;;;;;;;;;5025916;28;20068;-70
2021/10/14 00:46:19;;;;;;;4.90;3.55;;;;;;;;;;5027229;28;20172;-70
2021/10/14 00:49:03;;;;;;;4.78;3.92;;;;;;;;;;5016583;28;20095;-69
2021/10/14 00:51:48;;;;;;;5.13;3.70;;;;;;;;;;5026980;28;20068;-69
2021/10/14 00:54:33;;;;;;;5.40;3.58;;;;;;;;;;5027276;28;20040;-69
2021/10/14 00:57:18;;;;;;;5.05;3.55;;;;;;;;;;5028032;28;20055;-69
2021/10/14 01:00:04;;;;;;;4.78;3.67;;;;;;;;;;5023622;28;20461;-69
2021/10/14 01:02:48;;;;;;;6.15;3.65;;;;;;;;;;5023692;28;20052;-70
2021/10/14 01:05:33;;;;;;;5.03;3.60;;;;;;;;;;5011803;28;20044;-69
2021/10/14 01:08:18;;;;;;;4.68;3.70;;;;;;;;;;5027832;28;20149;-70
2021/10/14 01:11:02;;;;;;;3.75;3.30;;;;;;;;;;5027179;28;20425;-69
2021/10/14 01:13:47;;;;;;;3.72;3.17;;;;;;;;;;5011879;28;20117;-69
2021/10/14 01:16:31;;;;;;;4.00;3.30;;;;;;;;;;5027818;28;20122;-69
2021/10/14 01:19:16;;;;;;;3.63;3.30;;;;;;;;;;5024921;28;20136;-69
2021/10/14 01:22:00;;;;;;;5.13;3.22;;;;;;;;;;5026758;28;20044;-69
2021/10/14 01:24:47;;;;;;;3.72;3.30;;;;;;;;;;5026447;28;20052;-70
2021/10/14 01:27:31;;;;;;;3.65;3.00;;;;;;;;;;5012819;28;20063;-70
2021/10/14 01:30:16;;;;;;;4.28;3.17;;;;;;;;;;5026498;28;20063;-70
2021/10/14 01:33:01;;;;;;;3.97;3.10;;;;;;;;;;5011986;28;20044;-69
2021/10/14 01:35:45;;;;;;;3.72;2.88;;;;;;;;;;5026887;28;20124;-70
2021/10/14 01:38:30;;;;;;;3.65;2.92;;;;;;;;;;5027119;28;20057;-70
2021/10/14 01:41:15;;;;;;;3.80;2.83;;;;;;;;;;5027238;28;20123;-70
2021/10/14 01:43:59;;;;;;;3.75;3.22;;;;;;;;;;5026004;28;20052;-70
2021/10/14 01:46:44;;;;;;;4.13;3.00;;;;;;;;;;5026554;28;20111;-69
2021/10/14 01:49:28;;;;;;;3.42;3.10;;;;;;;;;;5015284;28;20044;-69
2021/10/14 01:52:13;;;;;;;3.70;3.13;;;;;;;;;;5029432;28;20040;-69
2021/10/14 01:54:57;;;;;;;3.00;2.70;;;;;;;;;;5011961;28;20531;-70
2021/10/14 01:57:42;;;;;;;3.25;2.80;;;;;;;;;;5024849;28;20056;-69
2021/10/14 02:00:27;;;;;;;4.10;3.05;;;;;;;;;;5012971;28;20040;-69
2021/10/14 02:03:11;;;;;;;3.70;2.80;;;;;;;;;;5027824;28;20389;-70
2021/10/14 02:05:56;;;;;;;2.95;2.53;;;;;;;;;;5021448;28;20186;-69
2021/10/14 02:08:40;;;;;;;3.55;2.65;;;;;;;;;;5012015;28;20444;-69
2021/10/14 02:11:25;;;;;;;3.42;2.88;;;;;;;;;;5027740;28;20037;-69
2021/10/14 02:14:09;;;;;;;3.30;2.30;;;;;;;;;;5013121;28;20096;-69
2021/10/14 02:16:54;;;;;;;3.17;2.42;;;;;;;;;;5027412;28;20443;-69
2021/10/14 02:19:38;;;;;;;3.60;2.83;;;;;;;;;;5028263;28;20138;-69
2021/10/14 02:22:23;;;;;;;3.15;2.28;;;;;;;;;;5028742;28;20041;-70
2021/10/14 02:25:08;;;;;;;2.72;2.40;;;;;;;;;;5019370;28;20036;-70
2021/10/14 02:27:53;;;;;;;3.20;2.42;;;;;;;;;;5026144;28;20492;-69
2021/10/14 02:30:37;;;;;;;5.43;2.75;;;;;;;;;;5028921;28;20044;-69
2021/10/14 02:33:22;;;;;;;2.80;2.50;;;;;;;;;;5023612;28;20436;-69
2021/10/14 02:36:06;;;;;;;3.28;2.30;;;;;;;;;;5027182;28;20625;-70
2021/10/14 02:38:51;;;;;;;3.40;2.40;;;;;;;;;;5027721;28;20052;-70
2021/10/14 02:41:35;;;;;;;2.78;2.33;;;;;;;;;;5024618;28;20032;-69
2021/10/14 02:44:20;;;;;;;3.45;2.20;;;;;;;;;;5014619;28;20048;-69
2021/10/14 02:47:04;;;;;;;3.13;2.25;;;;;;;;;;5026714;28;20127;-69
2021/10/14 02:49:49;;;;;;;3.13;2.30;;;;;;;;;;5012742;28;20460;-69
2021/10/14 02:52:34;;;;;;;2.63;2.10;;;;;;;;;;5028587;28;20125;-69
2021/10/14 02:55:18;;;;;;;3.03;2.00;;;;;;;;;;5029314;28;20829;-69
2021/10/14 02:58:03;;;;;;;3.05;2.10;;;;;;;;;;5030919;28;20064;-69
2021/10/14 03:00:47;;;;;;;3.60;2.40;;;;;;;;;;5028781;28;20068;-69
2021/10/14 03:03:33;;;;;;;2.63;1.98;;;;;;;;;;5030020;28;20040;-69
2021/10/14 03:06:17;;;;;;;3.15;2.13;;;;;;;;;;5017093;28;20039;-69
2021/10/14 03:09:02;;;;;;;2.92;2.10;;;;;;;;;;5029651;28;20084;-69
2021/10/14 03:11:47;;;;;;;2.70;2.20;;;;;;;;;;5021898;28;20068;-69
2021/10/14 03:14:31;;;;;;;2.45;1.90;;;;;;;;;;5031409;28;20048;-69
2021/10/14 03:17:16;;;;;;;4.18;2.10;;;;;;;;;;5030956;28;20056;-69
2021/10/14 03:20:00;;;;;;;2.60;1.85;;;;;;;;;;5028816;28;20459;-69
2021/10/14 03:22:45;;;;;;;3.80;2.20;;;;;;;;;;5032656;28;20128;-69
2021/10/14 03:25:30;;;;;;;3.53;2.17;;;;;;;;;;5015696;28;20803;-69
2021/10/14 03:28:14;;;;;;;3.13;2.10;;;;;;;;;;5017028;28;20416;-69
2021/10/14 03:30:58;;;;;;;3.60;2.13;;;;;;;;;;5016055;28;20500;-69
2021/10/14 03:33:43;;;;;;;4.32;2.05;;;;;;;;;;5030994;28;20044;-69
2021/10/14 03:36:28;;;;;;;3.22;2.10;;;;;;;;;;5016795;28;20464;-69
2021/10/14 03:39:12;;;;;;;3.88;2.00;;;;;;;;;;5031111;28;20131;-69
2021/10/14 03:41:57;;;;;;;2.47;1.88;;;;;;;;;;5016378;28;20619;-69
2021/10/14 03:44:41;;;;;;;3.97;2.05;;;;;;;;;;5030800;28;20496;-69
2021/10/14 03:47:26;;;;;;;2.92;1.88;;;;;;;;;;5031566;28;20099;-69
2021/10/14 03:50:11;;;;;;;2.83;2.22;;;;;;;;;;5030343;28;20048;-69
2021/10/14 03:52:55;;;;;;;2.90;2.10;;;;;;;;;;5029778;28;20123;-69
2021/10/14 03:55:40;;;;;;;3.63;1.92;;;;;;;;;;5011983;28;20048;-69
2021/10/14 03:58:25;;;;;;;2.88;1.98;;;;;;;;;;5013753;28;20127;-69
2021/10/14 04:01:09;;;;;;;2.83;2.10;;;;;;;;;;5014280;28;20068;-69
2021/10/14 04:03:55;;;;;;;2.80;2.00;;;;;;;;;;5030025;28;20076;-69
2021/10/14 04:06:39;;;;;;;3.10;2.25;;;;;;;;;;5030711;28;20056;-69
2021/10/14 04:09:24;;;;;;;2.40;2.00;;;;;;;;;;5031594;28;20716;-69
2021/10/14 04:12:09;;;;;;;3.72;2.25;;;;;;;;;;5030630;28;20436;-69
2021/10/14 04:14:53;;;;;;;2.30;1.90;;;;;;;;;;5027546;28;20618;-69
2021/10/14 04:17:38;;;;;;;3.67;2.10;;;;;;;;;;5029945;28;20560;-70
2021/10/14 04:20:23;;;;;;;2.65;2.10;;;;;;;;;;5031219;28;20032;-69
2021/10/14 04:23:08;;;;;;;2.60;1.88;;;;;;;;;;5030776;28;20075;-69
2021/10/14 04:25:53;;;;;;;2.13;1.85;;;;;;;;;;5030826;28;20040;-69
2021/10/14 04:28:37;;;;;;;3.20;2.17;;;;;;;;;;5029547;28;20040;-69
2021/10/14 04:31:22;;;;;;;2.97;2.00;;;;;;;;;;5026709;28;20071;-69
2021/10/14 04:34:07;;;;;;;2.45;2.10;;;;;;;;;;5030787;28;20095;-69
2021/10/14 04:36:52;;;;;;;5.60;2.40;;;;;;;;;;5030712;28;20215;-69
2021/10/14 04:39:37;;;;;;;2.97;2.00;;;;;;;;;;5030666;28;20503;-70
2021/10/14 04:42:21;;;;;;;4.15;2.10;;;;;;;;;;5030626;28;20372;-69
2021/10/14 04:45:06;;;;;;;2.60;2.03;;;;;;;;;;5030522;28;20048;-69
2021/10/14 04:47:51;;;;;;;2.63;2.05;;;;;;;;;;5030412;28;20133;-69
2021/10/14 04:50:36;;;;;;;3.42;1.92;;;;;;;;;;5029142;28;20064;-70
2021/10/14 04:53:20;;;;;;;3.45;2.10;;;;;;;;;;5013347;28;20467;-70
2021/10/14 04:56:05;;;;;;;3.05;2.10;;;;;;;;;;5027970;28;20075;-69
2021/10/14 04:58:49;;;;;;;2.13;1.92;;;;;;;;;;5028072;28;20052;-69
2021/10/14 05:01:34;;;;;;;3.05;2.00;;;;;;;;;;5028204;28;20462;-69
2021/10/14 05:04:18;;;;;;;2.80;2.03;;;;;;;;;;5027709;28;20056;-69
2021/10/14 05:07:03;;;;;;;3.00;2.08;;;;;;;;;;5028209;28;20091;-70
2021/10/14 05:09:47;;;;;;;4.72;2.00;;;;;;;;;;5020669;28;20045;-69
2021/10/14 05:12:32;;;;;;;2.60;1.95;;;;;;;;;;5027906;28;20059;-69
2021/10/14 05:15:16;;;;;;;3.22;1.90;;;;;;;;;;5027496;28;20141;-69
2021/10/14 05:18:01;;;;;;;2.95;1.92;;;;;;;;;;5026325;28;20056;-70
2021/10/14 05:20:45;;;;;;;2.42;1.70;;;;;;;;;;5026908;28;20087;-69
2021/10/14 05:23:30;;;;;;;2.20;1.90;;;;;;;;;;5012581;28;20040;-69
2021/10/14 05:26:14;;;;;;;2.55;2.15;;;;;;;;;;5026989;28;20040;-69
2021/10/14 05:28:59;;;;;;;3.38;2.10;;;;;;;;;;5027659;28;20101;-70
2021/10/14 05:31:44;;;;;;;5.32;2.20;;;;;;;;;;5026941;28;20028;-69
2021/10/14 05:34:28;;;;;;;2.28;1.63;;;;;;;;;;5012444;28;20559;-69
2021/10/14 05:37:13;;;;;;;3.63;2.10;;;;;;;;;;5027019;28;20470;-69
2021/10/14 05:39:57;;;;;;;2.58;1.95;;;;;;;;;;5027177;28;20103;-69
2021/10/14 05:42:42;;;;;;;3.33;1.85;;;;;;;;;;5027142;28;20079;-69
2021/10/14 05:45:27;;;;;;;3.28;1.90;;;;;;;;;;5027667;28;20048;-70
2021/10/14 05:48:12;;;;;;;2.08;1.88;;;;;;;;;;5007367;28;20076;-69
2021/10/14 05:50:56;;;;;;;4.78;2.13;;;;;;;;;;5009855;28;20040;-69
2021/10/14 05:53:41;;;;;;;3.50;2.15;;;;;;;;;;5027057;28;20096;-69
2021/10/14 05:56:25;;;;;;;3.22;1.90;;;;;;;;;;5026681;28;20083;-69
2021/10/14 05:59:10;;;;;;;5.93;2.25;;;;;;;;;;5026007;28;20060;-69
2021/10/14 06:01:55;;;;;;;2.17;1.80;;;;;;;;;;5007131;28;20500;-69
2021/10/14 06:04:40;;;;;;;4.47;2.00;;;;;;;;;;5005560;28;20087;-70
2021/10/14 06:07:25;;;;;;;2.30;1.77;;;;;;;;;;5026593;28;20569;-70
2021/10/14 06:10:10;;;;;;;2.38;2.08;;;;;;;;;;5026854;28;20044;-70
2021/10/14 06:12:55;;;;;;;3.08;1.80;;;;;;;;;;5026478;28;20052;-70
2021/10/14 06:15:39;;;;;;;4.30;2.00;;;;;;;;;;5025866;28;20080;-70
2021/10/14 06:18:24;;;;;;;2.58;1.85;;;;;;;;;;5026645;28;20119;-70
2021/10/14 06:21:09;;;;;;;1.98;1.50;;;;;;;;;;5025057;28;20152;-70
2021/10/14 06:23:53;;;;;;;3.00;1.77;;;;;;;;;;5026542;28;20091;-70
2021/10/14 06:26:38;;;;;;;2.63;1.77;;;;;;;;;;5012168;28;20032;-69
2021/10/14 06:29:22;;;;;;;2.10;1.90;;;;;;;;;;5026243;28;20044;-70
2021/10/14 06:32:07;;;;;;;2.40;1.80;;;;;;;;;;5026257;28;20121;-70
2021/10/14 06:34:52;;;;;;;3.38;1.90;;;;;;;;;;4991968;28;20096;-70
2021/10/14 06:37:37;;;;;;;2.85;1.90;;;;;;;;;;5003665;28;20200;-70
2021/10/14 06:40:22;;;;;;;3.05;1.83;;;;;;;;;;5026493;28;20048;-70
2021/10/14 06:43:06;;;;;;;2.60;1.80;;;;;;;;;;5026289;28;20487;-69
2021/10/14 06:45:51;;;;;;;2.63;1.70;;;;;;;;;;5011356;28;20063;-69
2021/10/14 06:48:36;;;;;;;4.15;1.92;;;;;;;;;;5019363;28;20039;-70
2021/10/14 06:51:20;;;;;;;4.05;2.60;;;;;;;;;;5025173;28;20044;-70
2021/10/14 06:54:05;;;;;;;2.63;1.90;;;;;;;;;;5026573;28;20419;-70
2021/10/14 06:56:49;;;;;;;2.17;1.60;;;;;;;;;;5026091;28;20040;-70
2021/10/14 06:59:34;;;;;;;2.35;1.73;;;;;;;;;;5026361;28;20047;-69
2021/10/14 07:02:18;;;;;;;3.22;1.65;;;;;;;;;;5006778;28;20533;-70
2021/10/14 07:05:03;;;;;;;3.08;1.90;;;;;;;;;;5008264;28;20056;-70
2021/10/14 07:07:48;;;;;;;2.00;1.70;;;;;;;;;;5026231;28;20048;-70
2021/10/14 07:10:33;;;;;;;2.22;1.55;;;;;;;;;;5023017;28;20145;-70
2021/10/14 07:13:19;;;;;;;3.25;2.25;;;;;;;;;;5026316;28;20743;-70
2021/10/14 07:16:04;;;;;;;2.72;1.67;;;;;;;;;;5026068;28;20044;-70
2021/10/14 07:18:48;;;;;;;2.70;2.08;;;;;;;;;;5026095;28;20140;-70
2021/10/14 07:21:33;;;;;;;2.30;1.70;;;;;;;;;;5025966;28;20103;-69
2021/10/14 07:24:19;;;;;;;2.90;1.70;;;;;;;;;;5025839;28;20043;-70
2021/10/14 07:27:03;;;;;;;3.05;1.77;;;;;;;;;;5018322;28;20084;-69
2021/10/14 07:29:48;;;;;;;3.20;2.10;;;;;;;;;;5025755;28;20048;-69
2021/10/14 07:32:33;;;;;;;2.30;1.67;;;;;;;;;;5025148;28;20256;-69
2021/10/14 07:35:20;;;;;;;3.45;2.00;;;;;;;;;;5025874;28;20045;-69
2021/10/14 07:38:09;;;;;;;2.33;1.70;;;;;;;;;;5025188;28;20083;-69
2021/10/14 07:40:54;;;;;;;3.17;2.00;;;;;;;;;;5026922;28;20121;-69
2021/10/14 07:43:39;;;;;;;2.40;1.73;;;;;;;;;;5029233;28;20060;-69
2021/10/14 07:46:23;;;;;;;3.72;1.70;;;;;;;;;;5029462;28;20056;-69
2021/10/14 07:49:08;;;;;;;2.78;1.75;;;;;;;;;;5029281;28;20100;-71
2021/10/14 07:51:52;;;;;;;2.20;1.85;;;;;;;;;;5028935;28;20439;-70
2021/10/14 07:54:37;;;;;;;4.10;1.95;;;;;;;;;;5029088;28;20555;-70
2021/10/14 07:57:22;;;;;;;3.00;1.90;;;;;;;;;;5029131;28;20090;-70
2021/10/14 08:00:07;;;;;;;2.45;1.98;;;;;;;;;;5029132;28;20515;-70
2021/10/14 08:02:52;;;;;;;2.63;1.80;;;;;;;;;;5009684;28;20037;-70
2021/10/14 08:05:36;;;;;;;2.47;1.90;;;;;;;;;;5011843;28;20144;-70
2021/10/14 08:08:21;;;;;;;3.85;1.70;;;;;;;;;;4994972;28;20119;-70
2021/10/14 08:11:06;;;;;;;3.45;2.20;;;;;;;;;;5014363;28;20044;-70
2021/10/14 08:13:52;;;;;;;3.38;1.80;;;;;;;;;;5028508;28;20041;-69
2021/10/14 08:16:37;;;;;;;2.20;1.73;;;;;;;;;;5025792;28;20397;-70
2021/10/14 08:19:21;;;;;;;2.50;1.80;;;;;;;;;;5029143;28;20108;-70
2021/10/14 08:22:06;;;;;;;5.78;1.85;;;;;;;;;;5028687;28;20138;-69
2021/10/14 08:24:51;;;;;;;2.45;1.60;;;;;;;;;;5010615;28;20052;-69
2021/10/14 08:27:35;;;;;;;3.13;1.98;;;;;;;;;;5026676;28;20048;-69
2021/10/14 08:30:20;;;;;;;2.60;1.90;;;;;;;;;;5013998;28;20040;-70
2021/10/14 08:33:05;;;;;;;3.70;1.95;;;;;;;;;;5023126;28;20449;-70
2021/10/14 08:35:49;;;;;;;2.47;1.88;;;;;;;;;;5029792;28;20143;-69
2021/10/14 08:38:34;;;;;;;2.80;1.80;;;;;;;;;;5013683;28;20526;-69
2021/10/14 08:41:19;;;;;;;3.17;2.00;;;;;;;;;;5024103;28;20121;-69
2021/10/14 08:44:04;;;;;;;4.40;2.08;;;;;;;;;;5029281;28;20090;-69
2021/10/14 08:46:48;;;;;;;3.25;2.10;;;;;;;;;;5009286;28;20144;-69
2021/10/14 08:49:33;;;;;;;3.08;1.67;;;;;;;;;;5007780;28;20090;-69
2021/10/14 08:52:18;;;;;;;3.08;2.00;;;;;;;;;;4994847;28;20049;-69
2021/10/14 08:55:02;;;;;;;2.85;1.80;;;;;;;;;;5014615;28;20040;-69
2021/10/14 08:57:47;;;;;;;5.47;2.08;;;;;;;;;;5028588;28;20553;-70
2021/10/14 09:00:31;;;;;;;2.25;1.70;;;;;;;;;;5014164;28;20400;-70
2021/10/14 09:03:25;;;;;;;2.45;1.80;;;;;;;;;;5028113;28;20110;-70
2021/10/14 09:06:10;;;;;;;2.42;1.75;;;;;;;;;;5027934;28;20043;-70
2021/10/14 09:08:55;;;;;;;2.90;1.73;;;;;;;;;;5028093;28;20675;-70
2021/10/14 09:11:40;;;;;;;2.45;1.85;;;;;;;;;;5027267;28;20055;-70
2021/10/14 09:14:24;;;;;;;3.28;1.85;;;;;;;;;;5015567;28;20048;-70
2021/10/14 09:17:09;;;;;;;3.55;1.67;;;;;;;;;;5015556;28;20570;-70
2021/10/14 09:19:53;;;;;;;3.20;1.60;;;;;;;;;;5012333;28;20052;-70
2021/10/14 09:22:53;;;;;;;2.00;1.70;;;;;;;;;;5018242;28;20037;-70
2021/10/14 09:25:42;;;;;;;3.75;2.08;;;;;;;;;;5027079;28;20512;-70
2021/10/14 09:28:28;;;;;;;2.10;1.60;;;;;;;;;;5027231;28;20040;-70
2021/10/14 09:31:12;;;;;;;3.00;1.80;;;;;;;;;;5026581;28;20048;-70
2021/10/14 09:33:57;;;;;;;3.45;1.77;;;;;;;;;;5007662;28;20078;-70
2021/10/14 09:36:41;;;;;;;2.78;1.80;;;;;;;;;;5026691;28;20401;-71
2021/10/14 09:39:26;;;;;;;3.80;1.95;;;;;;;;;;5027158;28;20075;-68
2021/10/14 09:42:11;;;;;;;2.78;1.77;;;;;;;;;;5027205;28;20107;-70
2021/10/14 09:44:55;;;;;;;4.97;2.05;;;;;;;;;;5011923;28;20047;-70
2021/10/14 09:47:40;;;;;;;3.28;1.77;;;;;;;;;;5023064;28;20317;-70
2021/10/14 09:50:28;;;;;;;3.92;1.77;;;;;;;;;;5027510;28;20049;-70
2021/10/14 09:53:17;;;;;;;2.90;1.80;;;;;;;;;;5022021;28;20045;-70
2021/10/14 09:56:02;;;;;;;2.17;1.70;;;;;;;;;;5026704;28;20067;-70
2021/10/14 09:58:46;;;;;;;3.75;1.80;;;;;;;;;;5026658;28;20519;-70
2021/10/14 10:01:32;;;;;;;2.00;1.75;;;;;;;;;;5026907;28;20148;-70
2021/10/14 10:04:17;;;;;;;2.55;1.80;;;;;;;;;;5025934;28;20060;-70
2021/10/14 10:07:02;;;;;;;3.72;2.08;;;;;;;;;;5011448;28;20091;-70
2021/10/14 10:09:47;;;;;;;4.30;2.33;;;;;;;;;;5016651;28;20546;-68
2021/10/14 10:12:31;;;;;;;3.88;2.15;;;;;;;;;;5026907;28;20115;-70
2021/10/14 10:15:16;;;;;;;3.42;2.25;;;;;;;;;;5009255;28;20071;-70
2021/10/14 10:18:00;;;;;;;3.50;2.17;;;;;;;;;;5010338;28;20056;-70
2021/10/14 10:20:45;;;;;;;3.42;1.90;;;;;;;;;;5026156;28;20103;-69
2021/10/14 10:23:48;;;;;;;3.55;1.98;;;;;;;;;;5020142;28;20043;-70
2021/10/14 10:26:33;;;;;;;3.53;2.05;;;;;;;;;;5005564;28;20160;-70
2021/10/14 10:29:21;;;;;;;3.50;2.00;;;;;;;;;;5026151;28;20063;-70
2021/10/14 10:32:06;;;;;;;3.13;1.80;;;;;;;;;;5007700;28;20040;-70
2021/10/14 10:35:03;;;;;;;2.05;1.67;;;;;;;;;;5023592;28;20072;-70
2021/10/14 10:37:48;;;;;;;3.25;2.03;;;;;;;;;;5012437;28;20099;-69
2021/10/14 10:40:34;;;;;;;2.70;1.80;;;;;;;;;;5004638;28;20973;-69
2021/10/14 10:43:21;;;;;;;2.72;1.77;;;;;;;;;;5010208;28;20044;-70
2021/10/14 10:46:07;;;;;;;3.28;1.80;;;;;;;;;;5009143;28;20043;-69
2021/10/14 10:48:52;;;;;;;3.05;1.85;;;;;;;;;;4997782;28;20067;-69
2021/10/14 10:51:36;;;;;;;2.40;1.88;;;;;;;;;;4992421;28;20123;-69
2021/10/14 10:54:38;;;;;;;3.58;2.20;;;;;;;;;;5020365;28;20047;-70
2021/10/14 10:57:43;;;;;;;3.55;2.17;;;;;;;;;;5018934;28;20119;-69
2021/10/14 11:00:27;;;;;;;2.67;1.83;;;;;;;;;;5020141;28;20041;-70
2021/10/14 11:03:18;;;;;;;3.17;1.90;;;;;;;;;;5019450;28;20477;-69
2021/10/14 11:06:09;;;;;;;2.25;1.80;;;;;;;;;;5025428;28;20465;-69
2021/10/14 11:08:58;;;;;;;3.83;2.17;;;;;;;;;;5025469;28;20175;-69
2021/10/14 11:11:43;;;;;;;3.20;2.10;;;;;;;;;;5025615;28;20509;-69
2021/10/14 11:14:37;;;;;;;3.35;2.10;;;;;;;;;;5026439;28;20076;-69
2021/10/14 11:17:25;;;;;;;3.10;1.75;;;;;;;;;;5024971;28;20416;-69
2021/10/14 11:20:09;;;;;;;3.97;1.85;;;;;;;;;;5028266;28;20052;-69
2021/10/14 11:23:00;;;;;;;3.40;1.90;;;;;;;;;;5017026;28;20076;-69
2021/10/14 11:25:45;;;;;;;3.33;1.90;;;;;;;;;;5027816;28;20099;-70
2021/10/14 11:28:30;;;;;;;3.47;2.20;;;;;;;;;;4999388;28;20132;-70
2021/10/14 11:31:21;;;;;;;3.30;2.03;;;;;;;;;;5026261;28;20044;-70
2021/10/14 11:34:15;;;;;;;3.83;2.13;;;;;;;;;;5012532;28;20182;-70
2021/10/14 11:37:00;;;;;;;5.22;2.00;;;;;;;;;;5005636;28;20072;-69
2021/10/14 11:39:50;;;;;;;3.60;2.00;;;;;;;;;;5012758;28;20144;-70
2021/10/14 11:42:34;;;;;;;3.85;2.08;;;;;;;;;;5028629;28;20114;-70
2021/10/14 11:45:19;;;;;;;3.17;1.98;;;;;;;;;;5023102;28;20044;-70
2021/10/14 11:48:04;;;;;;;3.42;1.70;;;;;;;;;;5014622;28;20064;-69
2021/10/14 11:50:49;;;;;;;3.35;2.10;;;;;;;;;;5014395;28;20137;-69
2021/10/14 11:53:33;;;;;;;4.60;2.08;;;;;;;;;;5014757;28;20142;-69
2021/10/14 11:56:18;;;;;;;3.67;1.77;;;;;;;;;;5007654;28;20611;-70
2021/10/14 11:59:04;;;;;;;3.60;2.20;;;;;;;;;;5029422;28;20495;-70
2021/10/14 12:01:49;;;;;;;3.90;2.00;;;;;;;;;;5014157;28;20048;-69
2021/10/14 12:04:35;;;;;;;2.72;2.10;;;;;;;;;;5014390;28;20048;-70
2021/10/14 12:07:20;;;;;;;4.35;2.10;;;;;;;;;;5013370;28;20393;-69
2021/10/14 12:10:05;;;;;;;4.25;2.05;;;;;;;;;;5002147;28;20566;-69
2021/10/14 12:12:50;;;;;;;2.55;1.95;;;;;;;;;;5023613;28;20763;-69
2021/10/14 12:15:34;;;;;;;2.80;1.92;;;;;;;;;;5017929;28;20048;-70
2021/10/14 12:18:28;;;;;;;4.07;2.10;;;;;;;;;;5007854;28;20111;-70
2021/10/14 12:21:32;;;;;;;5.22;2.33;;;;;;;;;;5028573;28;20041;-70
2021/10/14 12:24:21;;;;;;;3.38;2.25;;;;;;;;;;5028098;28;20514;-69
2021/10/14 12:27:06;;;;;;;3.03;2.20;;;;;;;;;;4992532;28;20044;-70
2021/10/14 12:29:50;;;;;;;3.08;1.98;;;;;;;;;;4999900;28;20539;-69
2021/10/14 12:32:35;;;;;;;2.83;2.17;;;;;;;;;;5010349;28;20063;-69
2021/10/14 12:35:23;;;;;;;3.38;2.20;;;;;;;;;;5010368;28;20044;-69
2021/10/14 12:38:07;;;;;;;4.63;2.35;;;;;;;;;;5028165;28;20092;-69
2021/10/14 12:41:06;;;;;;;4.25;2.45;;;;;;;;;;5027887;28;20506;-69
2021/10/14 12:50:14;;;;;;;6.18;3.20;;;;;;;;;;5016105;28;20051;-69
2021/10/14 12:53:11;;;;;;;3.47;2.75;;;;;;;;;;4998680;28;20409;-69
2021/10/14 12:55:59;;;;;;;4.32;3.08;;;;;;;;;;5027458;28;20103;-68
2021/10/14 12:58:44;;;;;;;6.30;2.83;;;;;;;;;;5007343;28;20195;-69
2021/10/14 13:01:29;;;;;;;3.45;3.00;;;;;;;;;;5012837;28;20110;-68
2021/10/14 13:04:13;;;;;;;5.43;3.30;;;;;;;;;;5028087;28;20044;-69
2021/10/14 13:06:58;;;;;;;3.75;3.00;;;;;;;;;;5012969;28;20052;-68
2021/10/14 13:09:43;;;;;;;6.00;3.50;;;;;;;;;;5012493;28;20401;-68
2021/10/14 13:12:28;;;;;;;4.25;2.97;;;;;;;;;;5013299;28;20040;-69
2021/10/14 13:15:13;;;;;;;4.50;2.78;;;;;;;;;;5012878;28;20044;-68
2021/10/14 13:17:57;;;;;;;4.55;2.80;;;;;;;;;;5012866;28;20059;-67
2021/10/14 13:20:42;;;;;;;3.97;2.90;;;;;;;;;;5012651;28;20040;-69
2021/10/14 13:23:27;;;;;;;4.60;3.10;;;;;;;;;;5027822;28;20091;-69
2021/10/14 13:26:12;;;;;;;5.88;3.03;;;;;;;;;;5012691;28;20507;-69
2021/10/14 13:28:56;;;;;;;3.60;2.97;;;;;;;;;;5012827;28;20048;-68
2021/10/14 13:31:40;;;;;;;4.75;3.40;;;;;;;;;;5012514;28;20121;-68
2021/10/14 13:34:26;;;;;;;4.22;2.72;;;;;;;;;;5027450;28;20622;-68
2021/10/14 13:37:12;;;;;;;5.00;3.15;;;;;;;;;;5012455;28;20583;-68
2021/10/14 13:39:58;;;;;;;5.85;3.28;;;;;;;;;;5026832;28;20047;-68
2021/10/14 13:42:48;;;;;;;4.38;2.67;;;;;;;;;;5012584;28;20103;-68
2021/10/14 13:45:33;;;;;;;5.35;3.05;;;;;;;;;;5013368;28;20126;-68
2021/10/14 13:48:18;;;;;;;5.32;3.10;;;;;;;;;;4998454;28;20048;-68
2021/10/14 13:51:02;;;;;;;5.55;3.00;;;;;;;;;;4998135;28;20121;-68
2021/10/14 13:53:47;;;;;;;5.18;3.10;;;;;;;;;;5027102;28;20136;-68
2021/10/14 13:56:32;;;;;;;6.80;2.95;;;;;;;;;;5027076;28;20095;-68
2021/10/14 13:59:16;;;;;;;4.63;2.95;;;;;;;;;;5011339;28;20441;-68
2021/10/14 14:02:01;;;;;;;5.45;2.85;;;;;;;;;;5026965;28;20071;-68
2021/10/14 14:04:46;;;;;;;4.53;3.20;;;;;;;;;;5026808;28;20099;-68
2021/10/14 14:07:31;;;;;;;4.88;2.53;;;;;;;;;;5026926;28;20423;-68
2021/10/14 14:10:15;;;;;;;6.00;2.92;;;;;;;;;;5026565;28;20052;-68
2021/10/14 14:13:00;;;;;;;6.03;2.83;;;;;;;;;;5026913;28;20115;-68
2021/10/14 14:15:45;;;;;;;5.85;3.10;;;;;;;;;;5026818;28;20048;-68
2021/10/14 14:18:30;;;;;;;4.15;2.60;;;;;;;;;;5026534;28;20083;-68
2021/10/14 14:21:15;;;;;;;5.60;2.47;;;;;;;;;;4992016;28;20118;-68
2021/10/14 14:24:00;;;;;;;6.43;2.97;;;;;;;;;;5006924;28;20041;-68
2021/10/14 14:26:45;;;;;;;4.38;2.67;;;;;;;;;;5006872;28;20145;-68
2021/10/14 14:29:30;;;;;;;4.60;2.70;;;;;;;;;;5010331;28;20091;-68
2021/10/14 14:32:15;;;;;;;5.22;2.90;;;;;;;;;;5026512;28;20048;-68
2021/10/14 14:34:59;;;;;;;5.18;2.60;;;;;;;;;;5026485;28;20475;-68
2021/10/14 14:37:44;;;;;;;6.70;3.22;;;;;;;;;;5026508;28;20185;-68
2021/10/14 14:40:29;;;;;;;6.57;2.90;;;;;;;;;;5025605;28;20045;-68
2021/10/14 14:43:13;;;;;;;6.60;3.10;;;;;;;;;;5025332;28;20041;-69
2021/10/14 14:46:01;;;;;;;4.50;2.80;;;;;;;;;;5026313;28;20126;-69
2021/10/14 14:48:45;;;;;;;6.78;2.90;;;;;;;;;;5012184;28;20075;-68
2021/10/14 14:51:30;;;;;;;4.78;2.83;;;;;;;;;;5031980;28;20044;-68
2021/10/14 14:54:15;;;;;;;5.57;2.83;;;;;;;;;;5033257;28;20040;-68
2021/10/14 14:56:59;;;;;;;4.63;2.97;;;;;;;;;;5033004;28;20103;-68
2021/10/14 14:59:44;;;;;;;5.13;3.00;;;;;;;;;;5032692;28;20052;-68
2021/10/14 15:02:29;;;;;;;6.93;2.80;;;;;;;;;;5032902;28;20075;-68
2021/10/14 15:05:15;;;;;;;6.13;2.80;;;;;;;;;;5033110;28;20048;-68
2021/10/14 15:07:59;;;;;;;4.05;2.55;;;;;;;;;;5032747;28;20388;-69
2021/10/14 15:10:44;;;;;;;5.18;2.50;;;;;;;;;;5032809;28;20083;-68
2021/10/14 15:13:32;;;;;;;5.93;2.90;;;;;;;;;;5032957;28;20071;-68
2021/10/14 15:16:17;;;;;;;4.00;2.60;;;;;;;;;;5017645;28;20091;-68
2021/10/14 15:19:02;;;;;;;5.72;2.80;;;;;;;;;;5032732;28;20708;-68
2021/10/14 15:21:46;;;;;;;4.18;3.10;;;;;;;;;;5032403;28;20053;-69
2021/10/14 15:24:31;;;;;;;4.47;2.72;;;;;;;;;;5018087;28;20099;-68
2021/10/14 15:27:15;;;;;;;5.78;2.60;;;;;;;;;;5033052;28;20460;-69
2021/10/14 15:30:00;;;;;;;6.80;2.85;;;;;;;;;;5032843;28;20130;-68
2021/10/14 15:32:44;;;;;;;8.00;2.88;;;;;;;;;;4999634;28;20726;-68
2021/10/14 15:35:29;;;;;;;4.70;2.60;;;;;;;;;;5032658;28;20153;-69
2021/10/14 15:38:19;;;;;;;4.70;2.50;;;;;;;;;;5032708;28;20415;-68
2021/10/14 15:41:05;;;;;;;4.72;2.38;;;;;;;;;;5018558;28;20072;-68
2021/10/14 15:43:50;;;;;;;5.20;2.88;;;;;;;;;;5017317;28;20041;-68
2021/10/14 15:46:34;;;;;;;5.75;3.13;;;;;;;;;;5033300;28;20512;-68
2021/10/14 15:49:20;;;;;;;7.68;2.90;;;;;;;;;;5003685;28;20048;-68
2021/10/14 15:52:04;;;;;;;5.93;2.60;;;;;;;;;;5004807;28;20452;-70
2021/10/14 15:54:49;;;;;;;4.22;2.35;;;;;;;;;;5030066;28;20161;-69
2021/10/14 15:57:34;;;;;;;5.90;3.03;;;;;;;;;;5031516;28;20044;-69
2021/10/14 16:00:18;;;;;;;4.03;2.50;;;;;;;;;;5012609;28;20049;-68
2021/10/14 16:03:03;;;;;;;5.25;2.63;;;;;;;;;;5026100;28;20028;-69
2021/10/14 16:05:48;;;;;;;5.45;2.60;;;;;;;;;;5027183;28;20040;-68
2021/10/14 16:08:33;;;;;;;5.35;2.70;;;;;;;;;;5012333;28;20037;-69
2021/10/14 16:11:20;;;;;;;3.60;2.38;;;;;;;;;;5012535;28;20126;-70
2021/10/14 16:14:05;;;;;;;5.32;2.58;;;;;;;;;;5012588;28;20064;-71
2021/10/14 16:16:50;;;;;;;5.28;2.70;;;;;;;;;;5012241;28;20048;-70
2021/10/14 16:19:34;;;;;;;4.18;2.72;;;;;;;;;;5027849;28;20099;-70
2021/10/14 16:22:19;;;;;;;5.88;2.78;;;;;;;;;;5014117;28;20040;-70
2021/10/14 16:25:05;;;;;;;5.30;2.60;;;;;;;;;;5021380;28;20176;-70
2021/10/14 16:27:50;;;;;;;7.40;3.00;;;;;;;;;;5027811;28;20059;-70
2021/10/14 16:30:34;;;;;;;4.65;2.45;;;;;;;;;;5013645;28;20095;-70
2021/10/14 16:36:09;;;;;;;4.40;2.70;;;;;;;;;;5028211;28;20124;-69
2021/10/14 16:38:54;;;;;;;6.43;2.83;;;;;;;;;;5015885;28;20057;-69
2021/10/14 16:41:39;;;;;;;4.65;2.80;;;;;;;;;;5028667;28;20088;-70